createdAt,value
2023-04-14T00:00:47.339Z,76.33
2023-04-14T00:03:15.282Z,75.85
2023-04-14T00:05:44.783Z,75.71
2023-04-14T00:08:12.650Z,75.06
2023-04-14T00:10:40.599Z,75.92
2023-04-14T00:13:08.520Z,75.20
2023-04-14T00:15:36.464Z,75.04
2023-04-14T00:18:04.332Z,74.82
2023-04-14T00:20:32.372Z,75.16
2023-04-14T00:23:01.707Z,74.67
2023-04-14T00:25:29.639Z,75.68
2023-04-14T00:27:57.489Z,75.75
2023-04-14T00:30:25.456Z,74.92
2023-04-14T00:32:53.480Z,75.19
2023-04-14T00:35:21.645Z,75.27
2023-04-14T00:37:49.447Z,75.40
2023-04-14T00:40:18.825Z,76.26
2023-04-14T00:42:47.691Z,76.28
2023-04-14T00:45:16.323Z,75.59
2023-04-14T00:47:47.219Z,76.02
2023-04-14T00:50:16.380Z,76.03
2023-04-14T00:52:46.235Z,75.69
2023-04-14T00:55:16.724Z,76.61
2023-04-14T00:57:46.583Z,76.34
2023-04-14T01:00:15.838Z,77.13
2023-04-14T01:02:44.085Z,76.96
2023-04-14T01:05:12.458Z,76.65
2023-04-14T01:07:41.509Z,77.71
2023-04-14T01:10:10.200Z,76.94
2023-04-14T01:13:03.318Z,77.45
2023-04-14T01:15:36.737Z,77.45
2023-04-14T01:18:11.355Z,77.22
2023-04-14T01:20:43.376Z,77.57
2023-04-14T01:23:15.833Z,77.31
2023-04-14T01:26:18.090Z,77.19
2023-04-14T01:29:25.377Z,77.52
2023-04-14T01:32:03.055Z,77.45
2023-04-14T01:34:34.874Z,77.71
2023-04-14T01:37:07.614Z,77.77
2023-04-14T01:39:39.967Z,77.77
2023-04-14T01:42:12.537Z,77.18
2023-04-14T01:44:41.823Z,76.81
2023-04-14T01:47:15.429Z,77.57
2023-04-14T01:49:46.086Z,77.45
2023-04-14T01:52:16.721Z,77.53
2023-04-14T01:54:46.583Z,77.23
2023-04-14T01:57:19.351Z,77.43
2023-04-14T01:59:49.318Z,77.64
2023-04-14T02:02:19.568Z,77.39
2023-04-14T02:04:48.784Z,77.95
2023-04-14T02:07:20.332Z,78.43
2023-04-14T02:09:49.516Z,78.23
2023-04-14T02:12:19.887Z,78.06
2023-04-14T02:14:49.494Z,78.27
2023-04-14T02:17:20.845Z,79.24
2023-04-14T02:19:49.621Z,78.78
2023-04-14T02:22:17.683Z,79.06
2023-04-14T02:24:45.652Z,78.92
2023-04-14T02:27:19.079Z,78.99
2023-04-14T02:29:53.625Z,79.12
2023-04-14T02:32:24.838Z,79.17
2023-04-14T02:34:56.906Z,79.08
2023-04-14T02:37:28.589Z,79.42
2023-04-14T02:40:01.862Z,80.85
2023-04-14T02:42:31.993Z,80.19
2023-04-14T02:45:04.191Z,80.91
2023-04-14T02:47:38.552Z,80.64
2023-04-14T02:50:11.552Z,80.92
2023-04-14T02:52:41.689Z,81.01
2023-04-14T02:55:12.032Z,81.37
2023-04-14T02:57:41.239Z,81.65
2023-04-14T03:00:10.822Z,81.47
2023-04-14T03:02:40.395Z,81.99
2023-04-14T03:05:09.578Z,82.64
2023-04-14T03:07:38.721Z,82.17
2023-04-14T03:10:09.489Z,82.17
2023-04-14T03:12:38.762Z,82.19
2023-04-14T03:15:08.663Z,81.92
2023-04-14T03:17:38.067Z,82.91
2023-04-14T03:20:09.359Z,82.64
2023-04-14T03:22:40.870Z,82.76
2023-04-14T03:25:12.312Z,81.83
2023-04-14T03:27:42.293Z,82.08
2023-04-14T03:30:14.387Z,82.70
2023-04-14T03:32:44.512Z,82.28
2023-04-14T03:35:15.756Z,82.83
2023-04-14T03:37:45.879Z,82.60
2023-04-14T03:40:16.384Z,83.18
2023-04-14T03:42:46.397Z,83.44
2023-04-14T03:45:14.308Z,83.77
2023-04-14T03:47:42.213Z,82.86
2023-04-14T03:50:15.553Z,82.78
2023-04-14T03:52:46.977Z,83.14
2023-04-14T03:55:18.931Z,82.85
2023-04-14T03:57:48.478Z,82.96
2023-04-14T04:00:17.429Z,82.75
2023-04-14T04:02:46.812Z,83.09
2023-04-14T04:05:16.763Z,82.82
2023-04-14T04:07:47.080Z,83.18
2023-04-14T04:10:16.400Z,82.53
2023-04-14T04:12:45.308Z,83.16
2023-04-14T04:15:13.511Z,82.95
2023-04-14T04:17:42.848Z,83.26
2023-04-14T04:20:15.481Z,82.75
2023-04-14T04:22:46.828Z,82.85
2023-04-14T04:25:15.788Z,83.28
2023-04-14T04:27:44.193Z,83.26
2023-04-14T04:30:14.635Z,82.99
2023-04-14T04:32:42.629Z,83.48
2023-04-14T04:35:12.014Z,83.22
2023-04-14T04:37:40.587Z,82.31
2023-04-14T04:40:11.312Z,82.76
2023-04-14T04:42:42.647Z,82.29
2023-04-14T04:45:11.658Z,82.75
2023-04-14T04:47:39.518Z,83.18
2023-04-14T04:50:08.341Z,82.81
2023-04-14T04:52:36.188Z,83.04
2023-04-14T04:55:04.199Z,83.17
2023-04-14T04:57:33.430Z,84.18
2023-04-14T05:00:01.314Z,83.83
2023-04-14T05:02:29.135Z,84.36
2023-04-14T05:04:57.526Z,84.27
2023-04-14T05:07:25.442Z,84.90
2023-04-14T05:09:53.396Z,85.12
2023-04-14T05:12:21.340Z,84.77
2023-04-14T05:14:50.538Z,85.21
2023-04-14T05:17:18.317Z,84.85
2023-04-14T05:19:46.370Z,84.99
2023-04-14T05:22:14.191Z,84.40
2023-04-14T05:24:42.069Z,84.68
2023-04-14T05:27:13.832Z,84.87
2023-04-14T05:29:42.747Z,85.22
2023-04-14T05:32:13.396Z,85.11
2023-04-14T05:34:41.378Z,83.97
2023-04-14T05:37:09.277Z,84.41
2023-04-14T05:39:37.207Z,84.87
2023-04-14T05:42:05.688Z,84.68
2023-04-14T05:44:33.610Z,84.34
2023-04-14T05:47:01.449Z,83.94
2023-04-14T05:49:31.215Z,84.37
2023-04-14T05:51:59.287Z,82.90
2023-04-14T05:54:27.141Z,83.60
2023-04-14T05:56:54.917Z,82.65
2023-04-14T05:59:22.834Z,81.57
2023-04-14T06:01:50.907Z,81.75
2023-04-14T06:04:19.014Z,82.18
2023-04-14T06:06:48.406Z,81.24
2023-04-14T06:09:16.588Z,81.19
2023-04-14T06:11:44.423Z,80.12
2023-04-14T06:14:12.204Z,79.74
2023-04-14T06:16:40.150Z,78.96
2023-04-14T06:19:08.068Z,78.90
2023-04-14T06:21:35.955Z,77.91
2023-04-14T06:24:05.474Z,79.32
2023-04-14T06:26:33.436Z,79.22
2023-04-14T06:29:01.953Z,78.99
2023-04-14T06:31:29.942Z,78.67
2023-04-14T06:33:57.896Z,78.13
2023-04-14T06:36:25.804Z,77.19
2023-04-14T06:38:53.802Z,76.39
2023-04-14T06:41:23.116Z,75.69
2023-04-14T06:43:51.166Z,75.07
2023-04-14T06:46:19.429Z,74.59
2023-04-14T06:48:47.317Z,71.18
2023-04-14T06:51:15.191Z,68.78
2023-04-14T06:53:43.119Z,69.50
2023-04-14T06:56:11.130Z,69.61
2023-04-14T06:58:40.606Z,68.02
2023-04-14T07:01:08.558Z,60.92
2023-04-14T07:03:36.521Z,58.31
2023-04-14T07:06:05.296Z,56.24
2023-04-14T07:08:35.005Z,56.90
2023-04-14T07:11:03.913Z,55.28
2023-04-14T07:13:32.034Z,54.64
2023-04-14T07:16:02.279Z,50.71
2023-04-14T07:18:30.549Z,49.35
2023-04-14T07:20:58.577Z,47.25
2023-04-14T07:23:26.733Z,45.54
2023-04-14T07:25:55.831Z,42.07
2023-04-14T07:28:24.859Z,39.79
2023-04-14T07:30:53.319Z,36.64
2023-04-14T07:33:23.614Z,33.65
2023-04-14T07:36:02.028Z,31.54
2023-04-14T07:38:32.422Z,29.43
2023-04-14T07:41:01.364Z,29.06
2023-04-14T07:43:34.786Z,29.30
2023-04-14T07:46:05.514Z,28.43
2023-04-14T07:48:36.054Z,29.39
2023-04-14T07:51:04.460Z,28.61
2023-04-14T07:53:32.830Z,27.71
2023-04-14T07:56:00.830Z,27.31
2023-04-14T07:58:29.686Z,26.20
2023-04-14T08:00:57.815Z,25.36
2023-04-14T08:03:26.153Z,24.52
2023-04-14T08:05:55.486Z,24.03
2023-04-14T08:08:23.653Z,23.95
2023-04-14T08:10:51.660Z,23.96
2023-04-14T08:13:19.452Z,25.11
2023-04-14T08:15:47.413Z,24.94
2023-04-14T08:18:15.259Z,28.17
2023-04-14T08:20:43.263Z,28.93
2023-04-14T08:23:12.813Z,28.88
2023-04-14T08:25:40.882Z,28.71
2023-04-14T08:28:10.052Z,29.43
2023-04-14T08:30:38.252Z,28.37
2023-04-14T08:33:06.319Z,28.01
2023-04-14T08:35:36.303Z,28.84
2023-04-14T08:38:08.260Z,29.74
2023-04-14T08:40:40.034Z,32.23
2023-04-14T08:43:08.161Z,35.36
2023-04-14T08:45:36.848Z,36.81
2023-04-14T08:48:06.239Z,39.30
2023-04-14T08:50:38.124Z,42.37
2023-04-14T08:53:10.270Z,43.83
2023-04-14T08:55:41.833Z,44.86
2023-04-14T08:58:11.608Z,45.77
2023-04-14T09:00:40.401Z,42.80
2023-04-14T09:03:09.121Z,40.31
2023-04-14T09:05:37.976Z,39.49
2023-04-14T09:08:06.024Z,39.24
2023-04-14T09:10:35.727Z,38.33
2023-04-14T09:13:06.668Z,35.31
2023-04-14T09:15:34.586Z,34.40
2023-04-14T09:18:02.928Z,33.86
2023-04-14T09:20:34.741Z,36.78
2023-04-14T09:23:05.535Z,40.26
2023-04-14T09:25:34.159Z,43.08
2023-04-14T09:28:02.100Z,44.66
2023-04-14T09:30:32.320Z,46.48
2023-04-14T09:33:00.970Z,46.40
2023-04-14T09:35:45.152Z,47.01
2023-04-14T09:38:13.185Z,44.80
2023-04-14T09:40:43.893Z,45.81
2023-04-14T09:43:25.356Z,47.34
2023-04-14T09:45:55.638Z,48.28
2023-04-14T09:48:24.357Z,48.89
2023-04-14T09:51:00.428Z,49.93
2023-04-14T09:53:31.981Z,47.34
2023-04-14T09:56:02.776Z,45.32
2023-04-14T09:58:32.734Z,41.02
2023-04-14T10:01:04.636Z,39.39
2023-04-14T10:03:38.067Z,41.66
2023-04-14T10:06:10.790Z,42.62
2023-04-14T10:08:41.113Z,41.86
2023-04-14T10:11:19.350Z,41.18
2023-04-14T10:13:49.153Z,42.54
2023-04-14T10:16:18.917Z,43.25
2023-04-14T10:18:47.659Z,43.06
2023-04-14T10:21:16.334Z,41.20
2023-04-14T10:23:45.361Z,39.91
2023-04-14T10:26:14.560Z,41.21
2023-04-14T10:28:45.321Z,43.50
2023-04-14T10:31:17.480Z,42.90
2023-04-14T10:33:46.809Z,43.58
2023-04-14T10:36:24.555Z,45.72
2023-04-14T10:39:01.000Z,47.49
2023-04-14T10:41:37.672Z,48.23
2023-04-14T10:44:06.157Z,47.33
2023-04-14T10:46:44.371Z,46.45
2023-04-14T10:49:14.810Z,44.43
2023-04-14T10:51:44.029Z,43.96
2023-04-14T10:54:18.139Z,42.79
2023-04-14T10:57:09.629Z,41.73
2023-04-14T10:59:37.648Z,42.13
2023-04-14T11:02:05.744Z,42.98
2023-04-14T11:04:35.118Z,43.65
2023-04-14T11:07:10.308Z,43.16
2023-04-14T11:09:38.250Z,44.84
2023-04-14T11:12:24.410Z,45.42
2023-04-14T11:14:57.222Z,45.93
2023-04-14T11:17:25.121Z,46.76
2023-04-14T11:19:56.296Z,46.80
2023-04-14T11:22:41.459Z,48.71
2023-04-14T11:25:12.492Z,49.20
2023-04-14T11:27:41.070Z,49.73
2023-04-14T11:30:10.598Z,48.86
2023-04-14T11:32:49.057Z,47.78
2023-04-14T11:35:18.812Z,47.98
2023-04-14T11:37:47.417Z,47.20
2023-04-14T11:40:17.155Z,47.26
2023-04-14T11:42:46.600Z,47.33
2023-04-14T11:45:16.452Z,47.55
2023-04-14T11:47:49.011Z,46.28
2023-04-14T11:50:18.249Z,46.58
2023-04-14T11:52:47.471Z,47.21
2023-04-14T11:55:15.689Z,46.82
2023-04-14T11:57:45.866Z,46.65
2023-04-14T12:00:14.567Z,46.62
2023-04-14T12:02:45.461Z,46.93
2023-04-14T12:05:13.998Z,46.67
2023-04-14T12:07:45.758Z,47.99
2023-04-14T12:10:14.014Z,48.26
2023-04-14T12:12:42.676Z,48.69
2023-04-14T12:15:11.672Z,49.05
2023-04-14T12:17:39.722Z,49.07
2023-04-14T12:20:14.633Z,48.70
2023-04-14T12:22:43.914Z,48.83
2023-04-14T12:25:13.272Z,49.28
2023-04-14T12:27:41.317Z,47.69
2023-04-14T12:30:10.691Z,48.12
2023-04-14T12:32:42.429Z,47.33
2023-04-14T12:35:11.094Z,46.95
2023-04-14T12:37:41.405Z,47.25
2023-04-14T12:40:12.511Z,47.84
2023-04-14T12:42:48.426Z,46.44
2023-04-14T12:45:17.161Z,45.76
2023-04-14T12:47:53.885Z,46.03
2023-04-14T12:50:28.191Z,45.75
2023-04-14T12:52:57.123Z,44.85
2023-04-14T12:55:28.416Z,45.13
2023-04-14T12:57:56.868Z,44.06
2023-04-14T13:00:27.238Z,44.35
2023-04-14T13:02:55.764Z,44.84
2023-04-14T13:05:24.243Z,45.26
2023-04-14T13:07:52.115Z,45.63
2023-04-14T13:10:19.969Z,46.48
2023-04-14T13:12:49.197Z,47.36
2023-04-14T13:16:10.080Z,47.38
2023-04-14T13:18:05.163Z,49.08
2023-04-14T13:20:33.583Z,50.34
2023-04-14T13:23:01.571Z,50.55
2023-04-14T13:25:29.416Z,49.81
2023-04-14T13:27:58.544Z,49.04
2023-04-14T13:30:26.475Z,48.28
2023-04-14T13:32:57.782Z,47.38
2023-04-14T13:35:25.911Z,46.51
2023-04-14T13:37:53.762Z,44.79
2023-04-14T13:40:21.618Z,44.57
2023-04-14T13:42:49.416Z,44.58
2023-04-14T13:45:18.572Z,45.00
2023-04-14T13:47:49.298Z,45.14
2023-04-14T13:50:17.802Z,45.84
2023-04-14T13:52:45.641Z,46.62
2023-04-14T13:55:13.603Z,45.92
2023-04-14T13:57:41.463Z,45.98
2023-04-14T14:00:10.607Z,45.31
2023-04-14T14:02:40.635Z,43.70
2023-04-14T14:05:09.413Z,43.40
2023-04-14T14:07:37.660Z,43.49
2023-04-14T14:10:08.750Z,43.62
2023-04-14T14:12:36.614Z,44.42
2023-04-14T14:15:04.904Z,45.47
2023-04-14T14:17:33.074Z,45.25
2023-04-14T14:20:02.320Z,46.08
2023-04-14T14:22:30.143Z,45.38
2023-04-14T14:25:10.832Z,45.19
2023-04-14T14:27:44.868Z,45.64
2023-04-14T14:30:13.687Z,45.86
2023-04-14T14:32:41.630Z,45.34
2023-04-14T14:35:11.406Z,45.72
2023-04-14T14:37:40.924Z,45.89
2023-04-14T14:40:10.177Z,46.36
2023-04-14T14:42:38.508Z,46.64
2023-04-14T14:45:07.277Z,46.38
2023-04-14T14:47:35.167Z,46.08
2023-04-14T14:50:06.101Z,46.07
2023-04-14T14:52:37.036Z,46.53
2023-04-14T14:55:08.965Z,46.21
2023-04-14T14:57:36.817Z,46.67
2023-04-14T15:00:07.810Z,47.53
2023-04-14T15:02:36.651Z,47.74
2023-04-14T15:05:05.833Z,47.71
2023-04-14T15:07:33.810Z,47.71
2023-04-14T15:10:04.571Z,47.59
2023-04-14T15:12:32.798Z,47.22
2023-04-14T15:15:00.854Z,47.46
2023-04-14T15:17:28.787Z,47.11
2023-04-14T15:19:56.893Z,46.86
2023-04-14T15:22:24.712Z,47.42
2023-04-14T15:24:53.567Z,47.72
2023-04-14T15:27:22.845Z,48.43
2023-04-14T15:29:51.564Z,49.40
2023-04-14T15:32:24.361Z,49.91
2023-04-14T15:34:52.304Z,50.29
2023-04-14T15:37:20.197Z,50.28
2023-04-14T15:39:48.153Z,50.95
2023-04-14T15:42:16.107Z,51.34
2023-04-14T15:44:45.417Z,51.49
2023-04-14T15:47:13.543Z,51.61
2023-04-14T15:49:41.456Z,51.57
2023-04-14T15:52:12.405Z,51.95
2023-04-14T15:54:40.929Z,51.56
2023-04-14T15:57:08.766Z,51.96
2023-04-14T15:59:37.152Z,52.54
2023-04-14T16:02:06.409Z,53.10
2023-04-14T16:04:34.554Z,53.46
2023-04-14T16:07:02.773Z,53.75
2023-04-14T16:09:30.683Z,53.85
2023-04-14T16:11:58.609Z,54.13
2023-04-14T16:14:27.173Z,54.69
2023-04-14T16:16:58.035Z,54.09
2023-04-14T16:19:27.673Z,54.54
2023-04-14T16:21:56.940Z,54.66
2023-04-14T16:24:24.978Z,54.62
2023-04-14T16:26:52.861Z,54.59
2023-04-14T16:29:20.776Z,55.20
2023-04-14T16:31:48.863Z,55.44
2023-04-14T16:34:18.347Z,55.31
2023-04-14T16:36:47.849Z,55.66
2023-04-14T16:39:15.743Z,55.80
2023-04-14T16:41:45.279Z,55.50
2023-04-14T16:44:13.444Z,55.33
2023-04-14T16:46:41.551Z,55.42
2023-04-14T16:49:09.439Z,56.15
2023-04-14T16:51:38.039Z,56.30
2023-04-14T16:54:07.376Z,56.32
2023-04-14T16:56:36.846Z,56.48
2023-04-14T16:59:07.135Z,56.64
2023-04-14T17:01:35.389Z,57.07
2023-04-14T17:04:04.211Z,56.58
2023-04-14T17:06:32.628Z,56.86
2023-04-14T17:09:01.590Z,57.49
2023-04-14T17:11:30.810Z,57.66
2023-04-14T17:13:58.711Z,57.84
2023-04-14T17:16:27.382Z,58.26
2023-04-14T17:18:57.314Z,58.53
2023-04-14T17:21:25.550Z,58.77
2023-04-14T17:23:54.797Z,58.96
2023-04-14T17:26:23.480Z,59.04
2023-04-14T17:28:52.938Z,59.25
2023-04-14T17:31:20.986Z,59.49
2023-04-14T17:33:48.899Z,59.45
2023-04-14T17:36:17.592Z,59.70
2023-04-14T17:38:46.117Z,59.71
2023-04-14T17:41:14.296Z,59.94
2023-04-14T17:43:42.264Z,60.23
2023-04-14T17:46:11.838Z,60.18
2023-04-14T17:48:40.594Z,60.41
2023-04-14T17:51:08.677Z,60.59
2023-04-14T17:53:36.770Z,60.71
2023-04-14T17:56:04.761Z,60.98
2023-04-14T17:58:32.803Z,60.86
2023-04-14T18:01:00.847Z,60.96
2023-04-14T18:03:30.110Z,61.05
2023-04-14T18:05:58.013Z,61.35
2023-04-14T18:08:25.984Z,61.63
2023-04-14T18:10:54.239Z,61.90
2023-04-14T18:13:22.730Z,61.66
2023-04-14T18:15:50.892Z,61.89
2023-04-14T18:18:18.915Z,61.50
2023-04-14T18:20:50.107Z,61.81
2023-04-14T18:23:19.142Z,62.27
2023-04-14T18:28:17.757Z,62.08
2023-04-14T18:30:45.710Z,62.11
2023-04-14T18:33:13.632Z,61.91
2023-04-14T18:35:41.714Z,62.03
2023-04-14T18:38:12.350Z,61.86
2023-04-14T18:40:40.171Z,61.63
2023-04-14T18:43:08.001Z,61.47
2023-04-14T18:45:35.987Z,61.84
2023-04-14T18:48:04.886Z,61.79
2023-04-14T18:50:33.770Z,61.60
2023-04-14T18:53:01.709Z,61.91
2023-04-14T18:55:40.448Z,61.62
2023-04-14T18:58:13.457Z,61.76
2023-04-14T19:00:43.170Z,61.80
2023-04-14T19:03:11.174Z,62.03
2023-04-14T19:05:39.487Z,62.10
2023-04-14T19:08:08.018Z,61.91
2023-04-14T19:10:37.418Z,61.65
2023-04-14T19:13:05.797Z,61.92
2023-04-14T19:15:33.756Z,61.75
2023-04-14T19:18:01.669Z,61.65
2023-04-14T19:20:29.762Z,62.02
2023-04-14T19:22:58.523Z,61.91
2023-04-14T19:25:26.424Z,61.62
2023-04-14T19:27:55.861Z,61.50
2023-04-14T19:30:23.728Z,61.45
2023-04-14T19:32:53.513Z,61.23
2023-04-14T19:35:21.742Z,61.48
2023-04-14T19:37:49.990Z,61.47
2023-04-14T19:40:18.529Z,61.91
2023-04-14T19:42:46.672Z,61.57
2023-04-14T19:45:15.855Z,61.55
2023-04-14T19:47:44.103Z,61.93
2023-04-14T19:50:12.486Z,61.81
2023-04-14T19:52:40.378Z,62.08
2023-04-14T19:55:09.313Z,62.15
2023-04-14T19:57:37.095Z,62.63
2023-04-14T20:00:06.894Z,62.72
2023-04-14T20:02:36.333Z,62.81
2023-04-14T20:05:04.887Z,62.58
2023-04-14T20:07:33.383Z,63.11
2023-04-14T20:10:01.736Z,63.33
2023-04-14T20:12:29.687Z,63.42
2023-04-14T20:14:57.480Z,63.36
2023-04-14T20:17:27.377Z,63.58
2023-04-14T20:19:58.321Z,63.59
2023-04-14T20:22:26.214Z,63.23
2023-04-14T20:24:54.084Z,63.66
2023-04-14T20:27:21.957Z,63.22
2023-04-14T20:29:50.010Z,63.67
2023-04-14T20:32:18.008Z,63.45
2023-04-14T20:34:46.152Z,64.02
2023-04-14T20:37:15.304Z,63.98
2023-04-14T20:39:45.093Z,63.48
2023-04-14T20:42:13.010Z,63.71
2023-04-14T20:44:41.533Z,63.97
2023-04-14T20:47:09.472Z,64.10
2023-04-14T20:49:37.467Z,64.09
2023-04-14T20:52:05.792Z,64.38
2023-04-14T20:54:35.327Z,64.74
2023-04-14T20:57:03.932Z,64.42
2023-04-14T20:59:31.784Z,64.33
2023-04-14T21:01:59.840Z,64.84
2023-04-14T21:04:28.003Z,64.87
2023-04-14T21:06:55.876Z,64.43
2023-04-14T21:09:25.171Z,64.83
2023-04-14T21:12:14.928Z,64.62
2023-04-14T21:15:47.323Z,65.01
2023-04-14T21:17:30.274Z,65.29
2023-04-14T21:19:58.132Z,65.24
2023-04-14T21:22:25.995Z,64.74
2023-04-14T21:24:54.346Z,65.24
2023-04-14T21:27:23.700Z,65.05
2023-04-14T21:29:52.317Z,64.89
2023-04-14T21:32:20.211Z,65.41
2023-04-14T21:34:48.058Z,65.71
2023-04-14T21:37:18.100Z,65.36
2023-04-14T21:39:46.641Z,66.05
2023-04-14T21:42:15.021Z,65.81
2023-04-14T21:44:44.377Z,66.52
2023-04-14T21:47:12.532Z,65.89
2023-04-14T21:49:40.698Z,66.55
2023-04-14T21:52:08.714Z,66.08
2023-04-14T21:54:38.830Z,65.76
2023-04-14T21:57:06.977Z,66.04
2023-04-14T21:59:34.918Z,66.64
2023-04-14T22:02:04.223Z,66.21
2023-04-14T22:04:36.472Z,66.92
2023-04-14T22:07:05.519Z,65.97
2023-04-14T22:09:34.508Z,66.34
2023-04-14T22:12:03.318Z,67.11
2023-04-14T22:14:31.181Z,66.31
2023-04-14T22:16:59.034Z,66.16
2023-04-14T22:19:28.726Z,66.55
2023-04-14T22:21:56.757Z,67.32
2023-04-14T22:24:25.274Z,66.49
2023-04-14T22:26:53.605Z,66.40
2023-04-14T22:29:21.921Z,66.42
2023-04-14T22:31:49.880Z,67.06
2023-04-14T22:34:18.087Z,66.31
2023-04-14T22:36:47.625Z,66.28
2023-04-14T22:39:15.706Z,66.39
2023-04-14T22:41:45.372Z,67.05
2023-04-14T22:44:13.384Z,66.72
2023-04-14T22:46:41.295Z,66.80
2023-04-14T22:49:09.218Z,66.26
2023-04-14T22:51:37.224Z,66.72
2023-04-14T22:54:06.666Z,67.41
2023-04-14T22:56:34.619Z,66.51
2023-04-14T22:59:03.169Z,66.63
2023-04-14T23:01:31.555Z,67.03
2023-04-14T23:03:59.475Z,67.00
2023-04-14T23:06:33.569Z,66.95
2023-04-14T23:09:01.601Z,67.36
2023-04-14T23:11:31.010Z,67.09
2023-04-14T23:13:59.047Z,67.08
2023-04-14T23:16:27.712Z,67.49
2023-04-14T23:18:56.333Z,67.30
2023-04-14T23:21:25.028Z,67.58
2023-04-14T23:23:53.810Z,67.57
2023-04-14T23:26:22.850Z,67.55
2023-04-14T23:28:53.020Z,67.54
2023-04-14T23:31:21.106Z,67.57
2023-04-14T23:33:51.100Z,67.70
2023-04-14T23:36:19.620Z,68.16
2023-04-14T23:38:47.401Z,67.17
2023-04-14T23:41:15.730Z,67.95
2023-04-14T23:43:43.657Z,67.99
2023-04-14T23:46:12.950Z,68.12
2023-04-14T23:48:41.256Z,68.01
2023-04-14T23:51:18.929Z,68.08
2023-04-14T23:53:49.840Z,67.39
2023-04-14T23:56:17.996Z,67.14
2023-04-14T23:58:45.843Z,67.72
